sensor_id;sensor_type;location;lat;lon;timestamp;temperature;humidity
13268;DHT22;6702;47.068;15.458;2022-12-29T00:01:00;2.80;99.90
13268;DHT22;6702;47.068;15.458;2022-12-29T00:04:04;2.80;99.90
13268;DHT22;6702;47.068;15.458;2022-12-29T00:07:16;2.80;99.90
13268;DHT22;6702;47.068;15.458;2022-12-29T00:10:19;2.80;99.90
13268;DHT22;6702;47.068;15.458;2022-12-29T00:13:22;2.80;99.90
13268;DHT22;6702;47.068;15.458;2022-12-29T00:16:44;2.80;99.90
13268;DHT22;6702;47.068;15.458;2022-12-29T00:19:47;2.70;99.90
13268;DHT22;6702;47.068;15.458;2022-12-29T00:23:10;2.70;99.90
13268;DHT22;6702;47.068;15.458;2022-12-29T00:26:30;2.60;99.90
13268;DHT22;6702;47.068;15.458;2022-12-29T00:29:51;2.50;99.90
13268;DHT22;6702;47.068;15.458;2022-12-29T00:33:14;2.60;99.90
13268;DHT22;6702;47.068;15.458;2022-12-29T00:36:39;2.50;99.90
13268;DHT22;6702;47.068;15.458;2022-12-29T00:39:45;2.50;99.90
13268;DHT22;6702;47.068;15.458;2022-12-29T00:43:06;2.50;99.90
13268;DHT22;6702;47.068;15.458;2022-12-29T00:46:26;2.50;99.90
13268;DHT22;6702;47.068;15.458;2022-12-29T00:49:29;2.50;99.90
13268;DHT22;6702;47.068;15.458;2022-12-29T00:52:33;2.50;99.90
13268;DHT22;6702;47.068;15.458;2022-12-29T00:55:38;2.50;99.90
13268;DHT22;6702;47.068;15.458;2022-12-29T00:58:41;2.50;99.90
13268;DHT22;6702;47.068;15.458;2022-12-29T01:01:44;2.50;99.90
13268;DHT22;6702;47.068;15.458;2022-12-29T01:04:48;2.50;99.90
13268;DHT22;6702;47.068;15.458;2022-12-29T01:07:51;2.50;99.90
13268;DHT22;6702;47.068;15.458;2022-12-29T01:10:59;2.40;99.90
13268;DHT22;6702;47.068;15.458;2022-12-29T01:14:02;2.40;99.90
13268;DHT22;6702;47.068;15.458;2022-12-29T01:17:05;2.30;99.90
13268;DHT22;6702;47.068;15.458;2022-12-29T01:20:10;2.30;99.90
13268;DHT22;6702;47.068;15.458;2022-12-29T01:23:13;2.30;99.90
13268;DHT22;6702;47.068;15.458;2022-12-29T01:26:19;2.30;99.90
13268;DHT22;6702;47.068;15.458;2022-12-29T01:29:22;2.30;99.90
13268;DHT22;6702;47.068;15.458;2022-12-29T01:32:25;2.30;99.90
13268;DHT22;6702;47.068;15.458;2022-12-29T01:35:29;2.30;99.90
13268;DHT22;6702;47.068;15.458;2022-12-29T01:38:32;2.30;99.90
13268;DHT22;6702;47.068;15.458;2022-12-29T01:41:37;2.20;99.90
13268;DHT22;6702;47.068;15.458;2022-12-29T01:44:55;2.30;99.90
13268;DHT22;6702;47.068;15.458;2022-12-29T01:48:01;2.20;99.90
13268;DHT22;6702;47.068;15.458;2022-12-29T01:51:06;2.20;99.90
13268;DHT22;6702;47.068;15.458;2022-12-29T01:54:15;2.20;99.90
13268;DHT22;6702;47.068;15.458;2022-12-29T01:57:24;2.20;99.90
13268;DHT22;6702;47.068;15.458;2022-12-29T02:00:28;2.20;99.90
13268;DHT22;6702;47.068;15.458;2022-12-29T02:03:32;2.10;99.90
13268;DHT22;6702;47.068;15.458;2022-12-29T02:06:39;2.10;99.90
13268;DHT22;6702;47.068;15.458;2022-12-29T02:09:46;2.00;99.90
13268;DHT22;6702;47.068;15.458;2022-12-29T02:12:52;1.90;99.90
13268;DHT22;6702;47.068;15.458;2022-12-29T02:16:02;1.90;99.90
13268;DHT22;6702;47.068;15.458;2022-12-29T02:23:06;2.00;99.90
13268;DHT22;6702;47.068;15.458;2022-12-29T02:26:29;2.00;99.90
13268;DHT22;6702;47.068;15.458;2022-12-29T02:30:02;1.90;99.90
13268;DHT22;6702;47.068;15.458;2022-12-29T02:33:20;2.00;99.90
13268;DHT22;6702;47.068;15.458;2022-12-29T02:36:30;2.00;99.90
13268;DHT22;6702;47.068;15.458;2022-12-29T02:39:40;1.90;99.90
13268;DHT22;6702;47.068;15.458;2022-12-29T02:42:48;1.80;99.90
13268;DHT22;6702;47.068;15.458;2022-12-29T02:45:55;1.90;99.90
13268;DHT22;6702;47.068;15.458;2022-12-29T02:49:06;1.90;99.90
13268;DHT22;6702;47.068;15.458;2022-12-29T02:52:15;1.90;99.90
13268;DHT22;6702;47.068;15.458;2022-12-29T02:55:19;1.80;99.90
13268;DHT22;6702;47.068;15.458;2022-12-29T02:58:23;1.80;99.90
13268;DHT22;6702;47.068;15.458;2022-12-29T03:01:36;1.80;99.90
13268;DHT22;6702;47.068;15.458;2022-12-29T03:05:33;1.80;99.90
13268;DHT22;6702;47.068;15.458;2022-12-29T03:08:44;1.80;99.90
13268;DHT22;6702;47.068;15.458;2022-12-29T03:12:03;1.70;99.90
13268;DHT22;6702;47.068;15.458;2022-12-29T03:15:12;1.70;99.90
13268;DHT22;6702;47.068;15.458;2022-12-29T03:18:47;1.70;99.90
13268;DHT22;6702;47.068;15.458;2022-12-29T03:21:56;1.80;99.90
13268;DHT22;6702;47.068;15.458;2022-12-29T03:25:22;1.80;99.90
13268;DHT22;6702;47.068;15.458;2022-12-29T03:28:30;1.80;99.90
13268;DHT22;6702;47.068;15.458;2022-12-29T03:31:37;1.90;99.90
13268;DHT22;6702;47.068;15.458;2022-12-29T03:34:41;1.80;99.90
13268;DHT22;6702;47.068;15.458;2022-12-29T03:37:50;1.70;99.90
13268;DHT22;6702;47.068;15.458;2022-12-29T03:40:57;1.50;99.90
13268;DHT22;6702;47.068;15.458;2022-12-29T03:44:02;1.40;99.90
13268;DHT22;6702;47.068;15.458;2022-12-29T03:47:05;1.40;99.90
13268;DHT22;6702;47.068;15.458;2022-12-29T03:50:12;1.30;99.90
13268;DHT22;6702;47.068;15.458;2022-12-29T03:53:16;1.20;99.90
13268;DHT22;6702;47.068;15.458;2022-12-29T03:56:20;1.30;99.90
13268;DHT22;6702;47.068;15.458;2022-12-29T03:59:23;1.30;99.90
13268;DHT22;6702;47.068;15.458;2022-12-29T04:02:26;1.40;99.90
13268;DHT22;6702;47.068;15.458;2022-12-29T04:05:30;1.40;99.90
13268;DHT22;6702;47.068;15.458;2022-12-29T04:08:35;1.40;99.90
13268;DHT22;6702;47.068;15.458;2022-12-29T04:11:38;1.40;99.90
13268;DHT22;6702;47.068;15.458;2022-12-29T04:14:41;1.50;99.90
13268;DHT22;6702;47.068;15.458;2022-12-29T04:17:44;1.40;99.90
13268;DHT22;6702;47.068;15.458;2022-12-29T04:20:47;1.50;99.90
13268;DHT22;6702;47.068;15.458;2022-12-29T04:24:06;1.60;99.90
13268;DHT22;6702;47.068;15.458;2022-12-29T04:27:09;1.60;99.90
13268;DHT22;6702;47.068;15.458;2022-12-29T04:30:12;1.60;99.90
13268;DHT22;6702;47.068;15.458;2022-12-29T04:33:16;1.60;99.90
13268;DHT22;6702;47.068;15.458;2022-12-29T04:36:20;1.60;99.90
13268;DHT22;6702;47.068;15.458;2022-12-29T04:39:31;1.60;99.90
13268;DHT22;6702;47.068;15.458;2022-12-29T04:42:36;1.60;99.90
13268;DHT22;6702;47.068;15.458;2022-12-29T04:45:42;1.50;99.90
13268;DHT22;6702;47.068;15.458;2022-12-29T04:48:46;1.50;99.90
13268;DHT22;6702;47.068;15.458;2022-12-29T04:51:49;1.60;99.90
13268;DHT22;6702;47.068;15.458;2022-12-29T04:54:54;1.60;99.90
13268;DHT22;6702;47.068;15.458;2022-12-29T04:57:57;1.50;99.90
13268;DHT22;6702;47.068;15.458;2022-12-29T05:01:00;1.50;99.90
13268;DHT22;6702;47.068;15.458;2022-12-29T05:04:04;1.40;99.90
13268;DHT22;6702;47.068;15.458;2022-12-29T05:07:07;1.40;99.90
13268;DHT22;6702;47.068;15.458;2022-12-29T05:10:12;1.30;99.90
13268;DHT22;6702;47.068;15.458;2022-12-29T05:13:15;1.30;99.90
13268;DHT22;6702;47.068;15.458;2022-12-29T05:16:19;1.30;99.90
13268;DHT22;6702;47.068;15.458;2022-12-29T05:19:22;1.20;99.90
13268;DHT22;6702;47.068;15.458;2022-12-29T05:22:26;1.10;99.90
13268;DHT22;6702;47.068;15.458;2022-12-29T05:25:30;1.20;99.90
13268;DHT22;6702;47.068;15.458;2022-12-29T05:28:34;1.30;99.90
13268;DHT22;6702;47.068;15.458;2022-12-29T05:31:37;1.40;99.90
13268;DHT22;6702;47.068;15.458;2022-12-29T05:34:40;1.30;99.90
13268;DHT22;6702;47.068;15.458;2022-12-29T05:37:44;1.30;99.90
13268;DHT22;6702;47.068;15.458;2022-12-29T05:40:48;1.40;99.90
13268;DHT22;6702;47.068;15.458;2022-12-29T05:43:51;1.40;99.90
13268;DHT22;6702;47.068;15.458;2022-12-29T05:46:54;1.40;99.90
13268;DHT22;6702;47.068;15.458;2022-12-29T05:49:58;1.40;99.90
13268;DHT22;6702;47.068;15.458;2022-12-29T05:53:01;1.40;99.90
13268;DHT22;6702;47.068;15.458;2022-12-29T05:56:06;1.50;99.90
13268;DHT22;6702;47.068;15.458;2022-12-29T05:59:09;1.40;99.90
13268;DHT22;6702;47.068;15.458;2022-12-29T06:02:13;1.50;99.90
13268;DHT22;6702;47.068;15.458;2022-12-29T06:05:16;1.40;99.90
13268;DHT22;6702;47.068;15.458;2022-12-29T06:08:20;1.40;99.90
13268;DHT22;6702;47.068;15.458;2022-12-29T06:11:24;1.40;99.90
13268;DHT22;6702;47.068;15.458;2022-12-29T06:14:27;1.40;99.90
13268;DHT22;6702;47.068;15.458;2022-12-29T06:17:30;1.40;99.90
13268;DHT22;6702;47.068;15.458;2022-12-29T06:20:34;1.40;99.90
13268;DHT22;6702;47.068;15.458;2022-12-29T06:23:37;1.40;99.90
13268;DHT22;6702;47.068;15.458;2022-12-29T06:26:42;1.40;99.90
13268;DHT22;6702;47.068;15.458;2022-12-29T06:29:45;1.30;99.90
13268;DHT22;6702;47.068;15.458;2022-12-29T06:32:48;1.30;99.90
13268;DHT22;6702;47.068;15.458;2022-12-29T06:35:52;1.30;99.90
13268;DHT22;6702;47.068;15.458;2022-12-29T06:38:55;1.30;99.90
13268;DHT22;6702;47.068;15.458;2022-12-29T06:42:00;1.30;99.90
13268;DHT22;6702;47.068;15.458;2022-12-29T06:45:04;1.30;99.90
13268;DHT22;6702;47.068;15.458;2022-12-29T06:48:07;1.30;99.90
13268;DHT22;6702;47.068;15.458;2022-12-29T06:51:11;1.30;99.90
13268;DHT22;6702;47.068;15.458;2022-12-29T06:54:14;1.40;99.90
13268;DHT22;6702;47.068;15.458;2022-12-29T06:57:19;1.40;99.90
13268;DHT22;6702;47.068;15.458;2022-12-29T07:00:23;1.40;99.90
13268;DHT22;6702;47.068;15.458;2022-12-29T07:03:26;1.30;99.90
13268;DHT22;6702;47.068;15.458;2022-12-29T07:06:29;1.30;99.90
13268;DHT22;6702;47.068;15.458;2022-12-29T07:09:32;1.20;99.90
13268;DHT22;6702;47.068;15.458;2022-12-29T07:12:37;1.20;99.90
13268;DHT22;6702;47.068;15.458;2022-12-29T07:15:40;1.20;99.90
13268;DHT22;6702;47.068;15.458;2022-12-29T07:18:43;1.30;99.90
13268;DHT22;6702;47.068;15.458;2022-12-29T07:21:47;1.20;99.90
13268;DHT22;6702;47.068;15.458;2022-12-29T07:24:50;1.20;99.90
13268;DHT22;6702;47.068;15.458;2022-12-29T07:27:54;1.20;99.90
13268;DHT22;6702;47.068;15.458;2022-12-29T07:30:57;1.20;99.90
13268;DHT22;6702;47.068;15.458;2022-12-29T07:34:01;1.30;99.90
13268;DHT22;6702;47.068;15.458;2022-12-29T07:37:04;1.30;99.90
13268;DHT22;6702;47.068;15.458;2022-12-29T07:40:09;1.40;99.90
13268;DHT22;6702;47.068;15.458;2022-12-29T07:43:14;1.40;99.90
13268;DHT22;6702;47.068;15.458;2022-12-29T07:46:17;1.40;99.90
13268;DHT22;6702;47.068;15.458;2022-12-29T07:49:40;1.40;99.90
13268;DHT22;6702;47.068;15.458;2022-12-29T07:52:43;1.30;99.90
13268;DHT22;6702;47.068;15.458;2022-12-29T07:55:48;1.40;99.90
13268;DHT22;6702;47.068;15.458;2022-12-29T07:58:53;1.50;99.90
13268;DHT22;6702;47.068;15.458;2022-12-29T08:01:56;1.50;99.90
13268;DHT22;6702;47.068;15.458;2022-12-29T08:04:59;1.60;99.90
13268;DHT22;6702;47.068;15.458;2022-12-29T08:08:03;1.70;99.90
13268;DHT22;6702;47.068;15.458;2022-12-29T08:11:06;1.80;99.90
13268;DHT22;6702;47.068;15.458;2022-12-29T08:14:11;1.80;99.90
13268;DHT22;6702;47.068;15.458;2022-12-29T08:17:14;1.90;99.90
13268;DHT22;6702;47.068;15.458;2022-12-29T08:20:17;1.90;99.90
13268;DHT22;6702;47.068;15.458;2022-12-29T08:23:20;2.00;99.90
13268;DHT22;6702;47.068;15.458;2022-12-29T08:26:24;2.10;99.90
13268;DHT22;6702;47.068;15.458;2022-12-29T08:29:28;2.30;99.90
13268;DHT22;6702;47.068;15.458;2022-12-29T08:32:32;2.40;99.90
13268;DHT22;6702;47.068;15.458;2022-12-29T08:35:35;2.40;99.90
13268;DHT22;6702;47.068;15.458;2022-12-29T08:38:38;2.40;99.90
13268;DHT22;6702;47.068;15.458;2022-12-29T08:41:41;2.40;99.90
13268;DHT22;6702;47.068;15.458;2022-12-29T08:44:46;2.40;99.90
13268;DHT22;6702;47.068;15.458;2022-12-29T08:47:49;2.40;99.90
13268;DHT22;6702;47.068;15.458;2022-12-29T08:50:52;2.60;99.90
13268;DHT22;6702;47.068;15.458;2022-12-29T08:53:55;2.70;99.90
13268;DHT22;6702;47.068;15.458;2022-12-29T08:56:58;2.70;99.90
13268;DHT22;6702;47.068;15.458;2022-12-29T09:00:05;2.70;99.90
13268;DHT22;6702;47.068;15.458;2022-12-29T09:03:08;2.80;99.90
13268;DHT22;6702;47.068;15.458;2022-12-29T09:06:12;2.80;99.90
13268;DHT22;6702;47.068;15.458;2022-12-29T09:09:15;2.90;99.90
13268;DHT22;6702;47.068;15.458;2022-12-29T09:12:18;3.00;99.90
13268;DHT22;6702;47.068;15.458;2022-12-29T09:15:23;3.10;99.90
13268;DHT22;6702;47.068;15.458;2022-12-29T09:18:26;3.20;99.90
13268;DHT22;6702;47.068;15.458;2022-12-29T09:21:30;3.40;99.90
13268;DHT22;6702;47.068;15.458;2022-12-29T09:24:33;3.50;99.90
13268;DHT22;6702;47.068;15.458;2022-12-29T09:27:37;3.60;99.90
13268;DHT22;6702;47.068;15.458;2022-12-29T09:30:41;3.80;99.90
13268;DHT22;6702;47.068;15.458;2022-12-29T09:33:45;3.90;99.90
13268;DHT22;6702;47.068;15.458;2022-12-29T09:36:48;4.10;99.90
13268;DHT22;6702;47.068;15.458;2022-12-29T09:39:52;4.20;99.90
13268;DHT22;6702;47.068;15.458;2022-12-29T09:43:19;4.40;99.90
13268;DHT22;6702;47.068;15.458;2022-12-29T09:46:28;4.50;99.90
13268;DHT22;6702;47.068;15.458;2022-12-29T09:49:38;4.70;99.90
13268;DHT22;6702;47.068;15.458;2022-12-29T09:52:49;4.80;99.90
13268;DHT22;6702;47.068;15.458;2022-12-29T09:55:55;4.90;99.90
13268;DHT22;6702;47.068;15.458;2022-12-29T09:59:04;5.10;99.90
13268;DHT22;6702;47.068;15.458;2022-12-29T10:02:29;5.20;99.90
13268;DHT22;6702;47.068;15.458;2022-12-29T10:05:39;5.30;99.90
13268;DHT22;6702;47.068;15.458;2022-12-29T10:08:48;5.50;99.90
13268;DHT22;6702;47.068;15.458;2022-12-29T10:12:03;5.60;99.90
13268;DHT22;6702;47.068;15.458;2022-12-29T10:15:17;5.80;99.90
13268;DHT22;6702;47.068;15.458;2022-12-29T10:18:37;6.00;99.90
13268;DHT22;6702;47.068;15.458;2022-12-29T10:21:55;6.20;99.90
13268;DHT22;6702;47.068;15.458;2022-12-29T10:25:02;6.40;99.90
13268;DHT22;6702;47.068;15.458;2022-12-29T10:28:18;6.60;99.90
13268;DHT22;6702;47.068;15.458;2022-12-29T10:31:24;6.70;99.90
13268;DHT22;6702;47.068;15.458;2022-12-29T10:34:32;6.80;99.90
13268;DHT22;6702;47.068;15.458;2022-12-29T10:37:41;6.90;99.90
13268;DHT22;6702;47.068;15.458;2022-12-29T10:40:49;7.00;99.90
13268;DHT22;6702;47.068;15.458;2022-12-29T10:43:56;7.10;99.90
13268;DHT22;6702;47.068;15.458;2022-12-29T10:47:04;7.20;99.90
13268;DHT22;6702;47.068;15.458;2022-12-29T10:50:13;7.40;99.90
13268;DHT22;6702;47.068;15.458;2022-12-29T10:53:20;7.40;99.90
13268;DHT22;6702;47.068;15.458;2022-12-29T10:56:31;7.50;99.90
13268;DHT22;6702;47.068;15.458;2022-12-29T10:59:36;7.50;99.90
13268;DHT22;6702;47.068;15.458;2022-12-29T11:06:24;7.60;99.90
13268;DHT22;6702;47.068;15.458;2022-12-29T11:09:29;7.60;99.90
13268;DHT22;6702;47.068;15.458;2022-12-29T11:13:10;7.70;99.90
13268;DHT22;6702;47.068;15.458;2022-12-29T11:16:14;7.80;99.90
13268;DHT22;6702;47.068;15.458;2022-12-29T11:19:20;8.00;99.90
13268;DHT22;6702;47.068;15.458;2022-12-29T11:22:28;9.90;99.90
13268;DHT22;6702;47.068;15.458;2022-12-29T11:25:31;13.90;96.00
13268;DHT22;6702;47.068;15.458;2022-12-29T11:28:37;15.60;84.40
13268;DHT22;6702;47.068;15.458;2022-12-29T11:31:42;15.00;78.20
13268;DHT22;6702;47.068;15.458;2022-12-29T11:34:47;14.10;78.30
13268;DHT22;6702;47.068;15.458;2022-12-29T11:37:55;14.80;80.80
13268;DHT22;6702;47.068;15.458;2022-12-29T11:41:00;18.60;69.90
13268;DHT22;6702;47.068;15.458;2022-12-29T11:44:05;22.00;54.70
13268;DHT22;6702;47.068;15.458;2022-12-29T11:47:12;25.00;44.30
13268;DHT22;6702;47.068;15.458;2022-12-29T11:50:18;27.50;36.10
13268;DHT22;6702;47.068;15.458;2022-12-29T11:53:25;29.00;31.20
13268;DHT22;6702;47.068;15.458;2022-12-29T11:56:37;30.10;28.80
13268;DHT22;6702;47.068;15.458;2022-12-29T11:59:43;30.20;27.20
13268;DHT22;6702;47.068;15.458;2022-12-29T12:02:56;30.70;25.70
13268;DHT22;6702;47.068;15.458;2022-12-29T12:06:01;28.70;25.60
13268;DHT22;6702;47.068;15.458;2022-12-29T12:09:14;26.00;28.10
13268;DHT22;6702;47.068;15.458;2022-12-29T12:12:23;24.90;30.00
13268;DHT22;6702;47.068;15.458;2022-12-29T12:15:31;26.80;28.70
13268;DHT22;6702;47.068;15.458;2022-12-29T12:18:48;28.70;26.70
13268;DHT22;6702;47.068;15.458;2022-12-29T12:21:56;29.40;25.60
13268;DHT22;6702;47.068;15.458;2022-12-29T12:25:09;28.40;25.30
13268;DHT22;6702;47.068;15.458;2022-12-29T12:28:20;26.10;26.70
13268;DHT22;6702;47.068;15.458;2022-12-29T12:31:35;24.20;29.60
13268;DHT22;6702;47.068;15.458;2022-12-29T12:34:43;26.00;29.10
13268;DHT22;6702;47.068;15.458;2022-12-29T12:37:57;28.70;26.60
13268;DHT22;6702;47.068;15.458;2022-12-29T12:41:10;31.00;24.80
13268;DHT22;6702;47.068;15.458;2022-12-29T12:44:27;33.10;23.00
13268;DHT22;6702;47.068;15.458;2022-12-29T12:47:47;34.30;20.90
13268;DHT22;6702;47.068;15.458;2022-12-29T12:50:57;34.90;19.90
13268;DHT22;6702;47.068;15.458;2022-12-29T12:54:18;35.50;19.30
13268;DHT22;6702;47.068;15.458;2022-12-29T12:57:40;36.10;18.60
13268;DHT22;6702;47.068;15.458;2022-12-29T13:00:59;36.30;17.80
13268;DHT22;6702;47.068;15.458;2022-12-29T13:04:32;35.50;17.70
13268;DHT22;6702;47.068;15.458;2022-12-29T13:07:46;35.50;17.30
13268;DHT22;6702;47.068;15.458;2022-12-29T13:10:55;33.20;18.60
13268;DHT22;6702;47.068;15.458;2022-12-29T13:14:15;29.90;20.80
13268;DHT22;6702;47.068;15.458;2022-12-29T13:17:26;27.20;23.40
13268;DHT22;6702;47.068;15.458;2022-12-29T13:20:36;27.80;23.80
13268;DHT22;6702;47.068;15.458;2022-12-29T13:23:47;29.30;22.60
13268;DHT22;6702;47.068;15.458;2022-12-29T13:26:57;30.10;21.70
13268;DHT22;6702;47.068;15.458;2022-12-29T13:30:08;30.30;21.40
13268;DHT22;6702;47.068;15.458;2022-12-29T13:33:17;29.10;21.90
13268;DHT22;6702;47.068;15.458;2022-12-29T13:36:28;27.10;23.80
13268;DHT22;6702;47.068;15.458;2022-12-29T13:39:34;27.60;24.20
13268;DHT22;6702;47.068;15.458;2022-12-29T13:42:40;28.90;23.50
13268;DHT22;6702;47.068;15.458;2022-12-29T13:45:50;30.10;22.70
13268;DHT22;6702;47.068;15.458;2022-12-29T13:49:01;31.00;21.50
13268;DHT22;6702;47.068;15.458;2022-12-29T13:52:11;31.10;21.50
13268;DHT22;6702;47.068;15.458;2022-12-29T13:55:25;31.50;21.20
13268;DHT22;6702;47.068;15.458;2022-12-29T13:58:33;31.80;20.80
13268;DHT22;6702;47.068;15.458;2022-12-29T14:01:43;31.90;20.70
13268;DHT22;6702;47.068;15.458;2022-12-29T14:04:57;31.70;20.70
13268;DHT22;6702;47.068;15.458;2022-12-29T14:08:03;31.50;20.80
13268;DHT22;6702;47.068;15.458;2022-12-29T14:11:09;31.30;21.10
13268;DHT22;6702;47.068;15.458;2022-12-29T14:14:18;31.00;21.10
13268;DHT22;6702;47.068;15.458;2022-12-29T14:17:23;30.50;21.50
13268;DHT22;6702;47.068;15.458;2022-12-29T14:20:27;29.90;21.90
13268;DHT22;6702;47.068;15.458;2022-12-29T14:23:38;29.00;22.90
13268;DHT22;6702;47.068;15.458;2022-12-29T14:26:42;27.60;23.60
13268;DHT22;6702;47.068;15.458;2022-12-29T14:29:46;26.10;25.00
13268;DHT22;6702;47.068;15.458;2022-12-29T14:33:11;24.50;26.50
13268;DHT22;6702;47.068;15.458;2022-12-29T14:36:19;22.80;27.80
13268;DHT22;6702;47.068;15.458;2022-12-29T14:39:32;21.30;29.30
13268;DHT22;6702;47.068;15.458;2022-12-29T14:42:38;19.80;31.30
13268;DHT22;6702;47.068;15.458;2022-12-29T14:45:52;18.50;33.50
13268;DHT22;6702;47.068;15.458;2022-12-29T14:48:58;17.30;35.50
13268;DHT22;6702;47.068;15.458;2022-12-29T14:52:12;16.40;37.50
13268;DHT22;6702;47.068;15.458;2022-12-29T14:55:35;15.60;39.10
13268;DHT22;6702;47.068;15.458;2022-12-29T14:58:46;14.80;40.80
13268;DHT22;6702;47.068;15.458;2022-12-29T15:01:53;14.20;42.20
13268;DHT22;6702;47.068;15.458;2022-12-29T15:05:00;13.70;43.80
13268;DHT22;6702;47.068;15.458;2022-12-29T15:08:05;13.20;45.40
13268;DHT22;6702;47.068;15.458;2022-12-29T15:11:13;12.70;46.40
13268;DHT22;6702;47.068;15.458;2022-12-29T15:14:33;12.40;47.70
13268;DHT22;6702;47.068;15.458;2022-12-29T15:17:36;12.00;49.20
13268;DHT22;6702;47.068;15.458;2022-12-29T15:20:42;11.80;49.80
13268;DHT22;6702;47.068;15.458;2022-12-29T15:23:45;11.50;51.10
13268;DHT22;6702;47.068;15.458;2022-12-29T15:26:51;11.20;51.80
13268;DHT22;6702;47.068;15.458;2022-12-29T15:29:58;11.00;52.90
13268;DHT22;6702;47.068;15.458;2022-12-29T15:33:17;10.70;54.00
13268;DHT22;6702;47.068;15.458;2022-12-29T15:36:25;10.50;54.40
13268;DHT22;6702;47.068;15.458;2022-12-29T15:39:30;10.40;54.80
13268;DHT22;6702;47.068;15.458;2022-12-29T15:42:58;10.20;55.00
13268;DHT22;6702;47.068;15.458;2022-12-29T15:46:05;10.10;55.50
13268;DHT22;6702;47.068;15.458;2022-12-29T15:49:09;10.00;56.50
13268;DHT22;6702;47.068;15.458;2022-12-29T15:52:19;9.90;58.10
13268;DHT22;6702;47.068;15.458;2022-12-29T15:55:28;9.70;59.30
13268;DHT22;6702;47.068;15.458;2022-12-29T15:58:40;9.60;60.40
13268;DHT22;6702;47.068;15.458;2022-12-29T16:01:46;9.50;62.20
13268;DHT22;6702;47.068;15.458;2022-12-29T16:04:50;9.40;63.60
13268;DHT22;6702;47.068;15.458;2022-12-29T16:08:30;9.20;65.30
13268;DHT22;6702;47.068;15.458;2022-12-29T16:11:37;9.00;67.50
13268;DHT22;6702;47.068;15.458;2022-12-29T16:14:42;8.90;69.20
13268;DHT22;6702;47.068;15.458;2022-12-29T16:17:48;8.70;71.10
13268;DHT22;6702;47.068;15.458;2022-12-29T16:20:52;8.60;73.10
13268;DHT22;6702;47.068;15.458;2022-12-29T16:24:01;8.50;75.00
13268;DHT22;6702;47.068;15.458;2022-12-29T16:27:08;8.30;77.50
13268;DHT22;6702;47.068;15.458;2022-12-29T16:30:19;8.20;79.90
13268;DHT22;6702;47.068;15.458;2022-12-29T16:33:36;8.10;80.20
13268;DHT22;6702;47.068;15.458;2022-12-29T16:36:52;8.00;81.80
13268;DHT22;6702;47.068;15.458;2022-12-29T16:43:38;7.80;84.30
13268;DHT22;6702;47.068;15.458;2022-12-29T16:46:58;7.70;85.80
13268;DHT22;6702;47.068;15.458;2022-12-29T16:50:16;7.70;86.90
13268;DHT22;6702;47.068;15.458;2022-12-29T16:53:32;7.50;88.40
13268;DHT22;6702;47.068;15.458;2022-12-29T16:56:43;7.50;90.20
13268;DHT22;6702;47.068;15.458;2022-12-29T16:59:51;7.40;90.10
13268;DHT22;6702;47.068;15.458;2022-12-29T17:02:57;7.40;90.30
13268;DHT22;6702;47.068;15.458;2022-12-29T17:06:02;7.40;90.50
13268;DHT22;6702;47.068;15.458;2022-12-29T17:09:17;7.30;90.50
13268;DHT22;6702;47.068;15.458;2022-12-29T17:12:24;7.30;90.80
13268;DHT22;6702;47.068;15.458;2022-12-29T17:15:28;7.30;90.90
13268;DHT22;6702;47.068;15.458;2022-12-29T17:18:34;7.30;91.20
13268;DHT22;6702;47.068;15.458;2022-12-29T17:21:37;7.30;91.40
13268;DHT22;6702;47.068;15.458;2022-12-29T17:24:41;7.20;91.40
13268;DHT22;6702;47.068;15.458;2022-12-29T17:27:48;7.20;91.70
13268;DHT22;6702;47.068;15.458;2022-12-29T17:30:53;7.10;92.00
13268;DHT22;6702;47.068;15.458;2022-12-29T17:33:58;7.10;92.10
13268;DHT22;6702;47.068;15.458;2022-12-29T17:37:01;6.90;92.40
13268;DHT22;6702;47.068;15.458;2022-12-29T17:40:07;6.90;92.80
13268;DHT22;6702;47.068;15.458;2022-12-29T17:43:15;6.80;92.80
13268;DHT22;6702;47.068;15.458;2022-12-29T17:46:18;6.70;93.10
13268;DHT22;6702;47.068;15.458;2022-12-29T17:49:22;6.70;93.40
13268;DHT22;6702;47.068;15.458;2022-12-29T17:52:25;6.60;93.70
13268;DHT22;6702;47.068;15.458;2022-12-29T17:55:29;6.50;94.10
13268;DHT22;6702;47.068;15.458;2022-12-29T17:58:40;6.50;94.50
13268;DHT22;6702;47.068;15.458;2022-12-29T18:01:45;6.40;94.80
13268;DHT22;6702;47.068;15.458;2022-12-29T18:04:49;6.20;95.10
13268;DHT22;6702;47.068;15.458;2022-12-29T18:07:55;6.20;95.70
13268;DHT22;6702;47.068;15.458;2022-12-29T18:10:58;6.10;95.90
13268;DHT22;6702;47.068;15.458;2022-12-29T18:14:03;6.10;96.10
13268;DHT22;6702;47.068;15.458;2022-12-29T18:17:10;6.00;96.30
13268;DHT22;6702;47.068;15.458;2022-12-29T18:20:14;6.00;96.70
13268;DHT22;6702;47.068;15.458;2022-12-29T18:23:20;6.00;96.90
13268;DHT22;6702;47.068;15.458;2022-12-29T18:26:25;5.90;96.90
13268;DHT22;6702;47.068;15.458;2022-12-29T18:29:31;5.90;97.00
13268;DHT22;6702;47.068;15.458;2022-12-29T18:32:36;5.90;97.10
13268;DHT22;6702;47.068;15.458;2022-12-29T18:35:42;5.80;97.20
13268;DHT22;6702;47.068;15.458;2022-12-29T18:38:46;5.70;97.40
13268;DHT22;6702;47.068;15.458;2022-12-29T18:41:49;5.80;97.60
13268;DHT22;6702;47.068;15.458;2022-12-29T18:44:54;5.70;97.70
13268;DHT22;6702;47.068;15.458;2022-12-29T18:47:57;5.70;97.80
13268;DHT22;6702;47.068;15.458;2022-12-29T18:51:03;5.70;97.90
13268;DHT22;6702;47.068;15.458;2022-12-29T18:54:15;5.60;98.10
13268;DHT22;6702;47.068;15.458;2022-12-29T18:57:24;5.60;98.30
13268;DHT22;6702;47.068;15.458;2022-12-29T19:00:32;5.60;98.50
13268;DHT22;6702;47.068;15.458;2022-12-29T19:03:36;5.50;98.40
13268;DHT22;6702;47.068;15.458;2022-12-29T19:06:39;5.50;98.60
13268;DHT22;6702;47.068;15.458;2022-12-29T19:09:43;5.40;98.80
13268;DHT22;6702;47.068;15.458;2022-12-29T19:12:46;5.30;98.80
13268;DHT22;6702;47.068;15.458;2022-12-29T19:15:51;5.30;99.20
13268;DHT22;6702;47.068;15.458;2022-12-29T19:18:54;5.30;99.40
13268;DHT22;6702;47.068;15.458;2022-12-29T19:22:10;5.40;99.40
13268;DHT22;6702;47.068;15.458;2022-12-29T19:25:13;5.40;99.10
13268;DHT22;6702;47.068;15.458;2022-12-29T19:28:19;5.30;99.10
13268;DHT22;6702;47.068;15.458;2022-12-29T19:31:24;5.30;99.40
13268;DHT22;6702;47.068;15.458;2022-12-29T19:34:27;5.30;99.40
13268;DHT22;6702;47.068;15.458;2022-12-29T19:37:31;5.30;99.40
13268;DHT22;6702;47.068;15.458;2022-12-29T19:40:40;5.30;99.30
13268;DHT22;6702;47.068;15.458;2022-12-29T19:43:43;5.30;99.70
13268;DHT22;6702;47.068;15.458;2022-12-29T19:46:48;5.30;99.40
13268;DHT22;6702;47.068;15.458;2022-12-29T19:49:52;5.30;99.40
13268;DHT22;6702;47.068;15.458;2022-12-29T19:52:55;5.30;99.60
13268;DHT22;6702;47.068;15.458;2022-12-29T19:56:07;5.30;99.50
13268;DHT22;6702;47.068;15.458;2022-12-29T19:59:11;5.30;99.40
13268;DHT22;6702;47.068;15.458;2022-12-29T20:02:19;5.40;99.40
13268;DHT22;6702;47.068;15.458;2022-12-29T20:05:23;5.30;99.40
13268;DHT22;6702;47.068;15.458;2022-12-29T20:08:27;5.30;99.40
13268;DHT22;6702;47.068;15.458;2022-12-29T20:11:30;5.30;99.40